createdAt,value
2023-04-18T00:01:05.788Z,7.55
2023-04-18T00:03:33.179Z,7.93
2023-04-18T00:06:00.581Z,8.48
2023-04-18T00:08:27.729Z,7.53
2023-04-18T00:10:56.330Z,8.45
2023-04-18T00:13:23.483Z,8.50
2023-04-18T00:15:50.736Z,8.20
2023-04-18T00:18:17.895Z,7.72
2023-04-18T00:20:45.413Z,8.20
2023-04-18T00:23:13.435Z,8.45
2023-04-18T00:25:40.748Z,8.00
2023-04-18T00:28:09.254Z,8.35
2023-04-18T00:30:36.520Z,8.55
2023-04-18T00:33:05.108Z,8.30
2023-04-18T00:35:32.383Z,8.85
2023-04-18T00:37:59.547Z,7.88
2023-04-18T00:40:26.843Z,8.43
2023-04-18T00:42:54.195Z,8.25
2023-04-18T00:45:22.863Z,8.00
2023-04-18T00:47:50.108Z,8.35
2023-04-18T00:50:18.154Z,7.65
2023-04-18T00:52:46.557Z,8.40
2023-04-18T00:55:13.819Z,8.32
2023-04-18T00:57:42.178Z,7.95
2023-04-18T01:00:10.242Z,8.95
2023-04-18T01:02:39.409Z,8.32
2023-04-18T01:05:08.014Z,8.45
2023-04-18T01:07:37.788Z,8.27
2023-04-18T01:10:06.064Z,8.73
2023-04-18T01:12:33.271Z,8.13
2023-04-18T01:15:00.486Z,8.35
2023-04-18T01:17:29.179Z,8.73
2023-04-18T01:19:57.660Z,9.80
2023-04-18T01:22:26.697Z,10.48
2023-04-18T01:24:55.237Z,9.43
2023-04-18T01:27:22.505Z,9.43
2023-04-18T01:29:49.669Z,9.48
2023-04-18T01:32:16.846Z,10.25
2023-04-18T01:34:45.733Z,10.75
2023-04-18T01:37:12.940Z,9.82
2023-04-18T01:39:40.633Z,9.95
2023-04-18T01:42:09.187Z,9.45
2023-04-18T01:44:37.955Z,9.25
2023-04-18T01:47:05.612Z,10.10
2023-04-18T01:49:33.329Z,8.43
2023-04-18T01:52:00.539Z,8.40
2023-04-18T01:54:27.772Z,8.10
2023-04-18T01:56:54.922Z,8.63
2023-04-18T01:59:24.044Z,9.65
2023-04-18T02:01:51.260Z,8.63
2023-04-18T02:04:18.569Z,10.15
2023-04-18T02:06:47.188Z,10.68
2023-04-18T02:09:14.376Z,13.15
2023-04-18T02:11:43.426Z,9.98
2023-04-18T02:14:10.717Z,8.90
2023-04-18T02:16:39.302Z,9.13
2023-04-18T02:19:06.577Z,9.40
2023-04-18T02:21:34.640Z,9.52
2023-04-18T02:24:01.830Z,9.48
2023-04-18T02:26:29.019Z,9.85
2023-04-18T02:28:58.146Z,10.32
2023-04-18T02:31:25.493Z,10.07
2023-04-18T02:33:54.057Z,9.45
2023-04-18T02:36:22.194Z,10.25
2023-04-18T02:38:49.370Z,9.57
2023-04-18T02:41:16.525Z,11.23
2023-04-18T02:43:43.701Z,10.45
2023-04-18T02:46:10.975Z,10.95
2023-04-18T02:48:38.242Z,11.38
2023-04-18T02:51:08.479Z,10.95
2023-04-18T02:53:37.762Z,11.93
2023-04-18T02:56:05.829Z,12.13
2023-04-18T02:58:55.551Z,13.38
2023-04-18T03:01:40.789Z,13.05
2023-04-18T03:04:11.560Z,12.63
2023-04-18T03:09:11.722Z,12.48
2023-04-18T03:11:44.997Z,12.45
2023-04-18T03:14:12.786Z,11.77
2023-04-18T03:16:46.287Z,12.68
2023-04-18T03:19:16.707Z,13.75
2023-04-18T03:21:45.392Z,13.30
2023-04-18T03:24:12.826Z,14.90
2023-04-18T03:26:41.615Z,14.13
2023-04-18T03:29:09.216Z,14.20
2023-04-18T03:31:36.528Z,14.07
2023-04-18T03:34:03.887Z,11.93
2023-04-18T03:36:31.235Z,15.30
2023-04-18T03:39:00.753Z,13.90
2023-04-18T03:41:28.048Z,13.13
2023-04-18T03:43:57.574Z,14.23
2023-04-18T03:46:24.970Z,14.32
2023-04-18T03:48:54.546Z,15.30
2023-04-18T03:51:22.126Z,14.38
2023-04-18T03:53:49.282Z,12.23
2023-04-18T03:56:19.142Z,12.60
2023-04-18T03:58:55.031Z,12.50
2023-04-18T04:01:22.993Z,11.02
2023-04-18T04:03:52.329Z,10.85
2023-04-18T04:06:20.068Z,12.02
2023-04-18T04:08:47.234Z,11.35
2023-04-18T04:11:19.894Z,13.32
2023-04-18T04:13:47.254Z,11.00
2023-04-18T04:16:17.138Z,11.07
2023-04-18T04:18:45.247Z,11.68
2023-04-18T04:21:13.367Z,11.60
2023-04-18T04:23:48.380Z,12.32
2023-04-18T04:26:31.388Z,12.07
2023-04-18T04:29:03.688Z,12.07
2023-04-18T04:31:32.562Z,11.07
2023-04-18T04:33:59.793Z,11.85
2023-04-18T04:36:27.209Z,12.23
2023-04-18T04:38:56.494Z,12.63
2023-04-18T04:41:33.417Z,12.52
2023-04-18T04:44:00.661Z,12.15
2023-04-18T04:46:31.297Z,11.88
2023-04-18T04:49:00.267Z,12.93
2023-04-18T04:51:27.484Z,12.85
2023-04-18T04:53:55.077Z,12.90
2023-04-18T04:56:23.030Z,13.18
2023-04-18T04:58:51.937Z,12.05
2023-04-18T05:01:25.212Z,13.07
2023-04-18T05:03:52.638Z,11.20
2023-04-18T05:06:20.146Z,12.77
2023-04-18T05:08:47.600Z,11.80
2023-04-18T05:11:15.261Z,12.60
2023-04-18T05:13:42.683Z,10.20
2023-04-18T05:16:11.434Z,12.10
2023-04-18T05:18:38.691Z,10.90
2023-04-18T05:21:05.934Z,17.67
2023-04-18T05:23:33.649Z,11.18
2023-04-18T05:26:00.856Z,12.90
2023-04-18T05:28:28.024Z,11.10
2023-04-18T05:30:55.264Z,10.93
2023-04-18T05:33:23.879Z,10.75
2023-04-18T05:35:51.084Z,10.48
2023-04-18T05:38:18.286Z,9.93
2023-04-18T05:40:45.446Z,9.65
2023-04-18T05:43:12.832Z,9.65
2023-04-18T05:45:40.052Z,9.52
2023-04-18T05:48:07.238Z,11.77
2023-04-18T05:50:35.773Z,10.15
2023-04-18T05:53:03.015Z,14.48
2023-04-18T05:55:30.192Z,11.48
2023-04-18T05:57:57.367Z,7.80
2023-04-18T06:00:24.646Z,6.82
2023-04-18T06:02:52.028Z,9.25
2023-04-18T06:05:19.866Z,7.38
2023-04-18T06:07:48.752Z,8.68
2023-04-18T06:10:15.978Z,8.88
2023-04-18T06:12:43.154Z,8.05
2023-04-18T06:15:11.513Z,7.68
2023-04-18T06:17:38.945Z,6.70
2023-04-18T06:20:07.046Z,7.43
2023-04-18T06:22:34.240Z,6.75
2023-04-18T06:25:02.768Z,6.45
2023-04-18T06:27:31.844Z,7.07
2023-04-18T06:29:59.461Z,7.22
2023-04-18T06:32:26.786Z,7.18
2023-04-18T06:34:53.970Z,7.15
2023-04-18T06:37:21.259Z,7.05
2023-04-18T06:39:48.419Z,6.68
2023-04-18T06:42:16.956Z,5.57
2023-04-18T06:44:48.298Z,6.40
2023-04-18T06:47:16.072Z,7.18
2023-04-18T06:49:43.307Z,6.90
2023-04-18T06:52:10.605Z,7.22
2023-04-18T06:54:37.757Z,6.97
2023-04-18T06:57:05.077Z,6.80
2023-04-18T06:59:33.614Z,7.53
2023-04-18T07:02:00.786Z,7.00
2023-04-18T07:04:27.985Z,6.90
2023-04-18T07:06:55.274Z,6.55
2023-04-18T07:09:22.485Z,6.53
2023-04-18T07:11:49.912Z,7.07
2023-04-18T07:14:17.187Z,7.85
2023-04-18T07:16:45.905Z,6.80
2023-04-18T07:19:13.166Z,6.82
2023-04-18T07:21:40.378Z,6.82
2023-04-18T07:24:07.876Z,6.85
2023-04-18T07:26:35.372Z,5.82
2023-04-18T07:29:02.685Z,6.97
2023-04-18T07:31:29.951Z,6.72
2023-04-18T07:33:58.524Z,6.70
2023-04-18T07:36:25.819Z,7.72
2023-04-18T07:38:53.020Z,6.32
2023-04-18T07:41:20.178Z,7.28
2023-04-18T07:43:47.520Z,7.07
2023-04-18T07:46:14.799Z,6.80
2023-04-18T07:48:41.997Z,6.68
2023-04-18T07:51:11.079Z,6.75
2023-04-18T07:53:38.320Z,7.38
2023-04-18T07:56:05.615Z,6.72
2023-04-18T07:58:33.948Z,7.15
2023-04-18T08:01:01.137Z,7.50
2023-04-18T08:03:28.555Z,7.03
2023-04-18T08:05:56.093Z,6.47
2023-04-18T08:08:24.671Z,6.63
2023-04-18T08:10:51.823Z,7.63
2023-04-18T08:13:19.505Z,7.07
2023-04-18T08:15:47.526Z,6.82
2023-04-18T08:18:15.061Z,7.22
2023-04-18T08:20:43.706Z,7.38
2023-04-18T08:23:13.210Z,7.43
2023-04-18T08:25:42.930Z,6.60
2023-04-18T08:28:10.793Z,6.70
2023-04-18T08:30:38.553Z,6.75
2023-04-18T08:33:06.391Z,7.10
2023-04-18T08:35:34.672Z,7.38
2023-04-18T08:38:02.321Z,6.82
2023-04-18T08:40:30.072Z,6.75
2023-04-18T08:43:02.057Z,6.85
2023-04-18T08:45:29.949Z,6.68
2023-04-18T08:47:57.693Z,5.75
2023-04-18T08:50:25.063Z,6.53
2023-04-18T08:52:54.925Z,5.60
2023-04-18T08:55:22.829Z,7.35
2023-04-18T08:57:50.342Z,6.10
2023-04-18T09:00:20.062Z,7.28
2023-04-18T09:02:47.888Z,6.50
2023-04-18T09:05:17.581Z,6.95
2023-04-18T09:07:46.198Z,6.13
2023-04-18T09:10:24.546Z,6.32
2023-04-18T09:12:52.533Z,5.40
2023-04-18T09:15:23.575Z,5.60
2023-04-18T09:17:51.954Z,5.75
2023-04-18T09:20:30.860Z,6.32
2023-04-18T09:22:58.353Z,6.28
2023-04-18T09:25:27.686Z,5.65
2023-04-18T09:27:56.117Z,6.20
2023-04-18T09:30:32.770Z,5.50
2023-04-18T09:33:06.619Z,5.80
2023-04-18T09:35:41.278Z,5.65
2023-04-18T09:38:13.728Z,5.75
2023-04-18T09:41:08.520Z,5.60
2023-04-18T09:43:48.739Z,4.85
2023-04-18T09:46:19.216Z,5.65
2023-04-18T09:48:48.812Z,5.50
2023-04-18T09:51:24.926Z,5.45
2023-04-18T09:54:02.566Z,4.75
2023-04-18T09:56:41.563Z,5.72
2023-04-18T09:59:29.672Z,4.70
2023-04-18T10:02:19.381Z,5.03
2023-04-18T10:04:50.461Z,4.80
2023-04-18T10:07:26.782Z,5.18
2023-04-18T10:09:56.980Z,5.18
2023-04-18T10:12:28.377Z,5.03
2023-04-18T10:15:00.070Z,4.45
2023-04-18T10:20:17.495Z,4.13
2023-04-18T10:22:45.707Z,4.63
2023-04-18T10:25:13.213Z,4.68
2023-04-18T10:28:00.112Z,4.68
2023-04-18T10:30:52.244Z,4.15
2023-04-18T10:33:31.831Z,4.50
2023-04-18T10:36:01.719Z,4.45
2023-04-18T10:38:31.511Z,4.55
2023-04-18T10:41:29.987Z,4.20
2023-04-18T10:44:19.714Z,4.00
2023-04-18T10:47:21.758Z,3.75
2023-04-18T10:52:26.411Z,3.83
2023-04-18T10:55:05.255Z,4.13
2023-04-18T10:57:40.791Z,3.72
2023-04-18T11:00:10.784Z,4.10
2023-04-18T11:02:39.242Z,4.05
2023-04-18T11:05:09.492Z,4.05
2023-04-18T11:07:39.962Z,4.10
2023-04-18T11:10:09.121Z,4.55
2023-04-18T11:12:38.442Z,4.20
2023-04-18T11:15:11.561Z,3.97
2023-04-18T11:17:40.299Z,4.03
2023-04-18T11:20:11.384Z,4.50
2023-04-18T11:22:46.835Z,4.65
2023-04-18T11:25:14.398Z,4.20
2023-04-18T11:27:42.641Z,4.15
2023-04-18T11:30:10.916Z,3.83
2023-04-18T11:32:38.199Z,4.30
2023-04-18T11:35:10.325Z,3.97
2023-04-18T11:37:38.842Z,4.40
2023-04-18T11:40:09.622Z,4.57
2023-04-18T11:42:39.226Z,4.43
2023-04-18T11:45:10.137Z,4.55
2023-04-18T11:47:37.389Z,4.10
2023-04-18T11:50:06.436Z,4.10
2023-04-18T11:52:36.270Z,3.90
2023-04-18T11:55:14.233Z,4.90
2023-04-18T11:57:41.623Z,4.57
2023-04-18T12:00:10.591Z,4.45
2023-04-18T12:02:42.958Z,4.18
2023-04-18T12:05:11.131Z,4.20
2023-04-18T12:07:41.942Z,4.32
2023-04-18T12:10:28.190Z,4.82
2023-04-18T12:12:57.137Z,4.50
2023-04-18T12:15:25.465Z,4.80
2023-04-18T12:17:57.957Z,4.95
2023-04-18T12:20:25.462Z,4.68
2023-04-18T12:22:53.995Z,4.80
2023-04-18T12:25:27.082Z,5.80
2023-04-18T12:27:59.157Z,5.47
2023-04-18T12:30:28.139Z,5.13
2023-04-18T12:32:57.494Z,6.00
2023-04-18T12:35:25.659Z,5.60
2023-04-18T12:37:55.952Z,6.50
2023-04-18T12:40:24.069Z,5.43
2023-04-18T12:42:51.343Z,5.90
2023-04-18T12:45:20.278Z,6.20
2023-04-18T12:47:49.207Z,6.60
2023-04-18T12:50:18.555Z,5.47
2023-04-18T12:52:46.502Z,5.85
2023-04-18T12:55:15.306Z,7.03
2023-04-18T12:57:43.433Z,7.25
2023-04-18T13:00:12.050Z,6.80
2023-04-18T13:02:41.529Z,6.97
2023-04-18T13:05:11.829Z,6.57
2023-04-18T13:07:39.593Z,7.55
2023-04-18T13:10:08.072Z,7.45
2023-04-18T13:12:36.670Z,6.32
2023-04-18T13:15:04.381Z,6.85
2023-04-18T13:17:31.597Z,7.45
2023-04-18T13:19:58.811Z,9.13
2023-04-18T13:22:26.226Z,10.15
2023-04-18T13:24:53.402Z,9.30
2023-04-18T13:27:20.650Z,10.45
2023-04-18T13:29:49.343Z,9.80
2023-04-18T13:32:16.662Z,9.05
2023-04-18T13:34:45.625Z,6.85
2023-04-18T13:37:13.051Z,8.82
2023-04-18T13:39:40.457Z,8.55
2023-04-18T13:42:07.869Z,6.55
2023-04-18T13:44:36.063Z,7.55
2023-04-18T13:47:05.851Z,8.18
2023-04-18T13:49:33.838Z,7.18
2023-04-18T13:52:01.205Z,6.68
2023-04-18T13:54:30.701Z,7.10
2023-04-18T13:56:59.931Z,6.53
2023-04-18T13:59:27.440Z,6.35
2023-04-18T14:01:55.659Z,6.22
2023-04-18T14:04:24.465Z,6.60
2023-04-18T14:06:51.878Z,6.45
2023-04-18T14:09:19.125Z,7.57
2023-04-18T14:11:46.344Z,7.50
2023-04-18T14:14:13.536Z,7.85
2023-04-18T14:16:40.801Z,7.88
2023-04-18T14:19:08.043Z,8.10
2023-04-18T14:21:36.589Z,8.18
2023-04-18T14:24:05.572Z,9.57
2023-04-18T14:26:32.747Z,10.02
2023-04-18T14:28:59.961Z,9.38
2023-04-18T14:31:27.190Z,9.93
2023-04-18T14:33:54.442Z,8.57
2023-04-18T14:36:21.650Z,8.80
2023-04-18T14:38:50.471Z,8.30
2023-04-18T14:41:17.680Z,9.18
2023-04-18T14:43:44.903Z,8.30
2023-04-18T14:46:12.271Z,8.60
2023-04-18T14:48:39.532Z,9.35
2023-04-18T14:51:06.839Z,8.98
2023-04-18T14:53:34.224Z,9.18
2023-04-18T14:56:03.026Z,9.30
2023-04-18T14:58:30.331Z,8.35
2023-04-18T15:00:57.667Z,8.75
2023-04-18T15:03:24.976Z,8.25
2023-04-18T15:05:52.335Z,8.15
2023-04-18T15:08:19.556Z,8.52
2023-04-18T15:10:46.766Z,8.85
2023-04-18T15:13:15.299Z,8.32
2023-04-18T15:15:42.476Z,7.53
2023-04-18T15:18:09.749Z,6.45
2023-04-18T15:20:37.337Z,8.70
2023-04-18T15:23:04.606Z,7.88
2023-04-18T15:25:31.788Z,7.63
2023-04-18T15:27:58.989Z,8.20
2023-04-18T15:30:27.557Z,8.32
2023-04-18T15:32:54.812Z,8.63
2023-04-18T15:35:22.028Z,7.90
2023-04-18T15:37:49.329Z,8.60
2023-04-18T15:40:16.719Z,8.20
2023-04-18T15:42:44.299Z,7.68
2023-04-18T15:45:12.137Z,8.02
2023-04-18T15:47:40.894Z,7.38
2023-04-18T15:50:08.993Z,7.80
2023-04-18T15:52:36.270Z,7.22
2023-04-18T15:55:04.108Z,7.78
2023-04-18T15:57:31.691Z,7.85
2023-04-18T15:59:59.041Z,7.60
2023-04-18T16:02:26.492Z,7.70
2023-04-18T16:04:55.165Z,7.78
2023-04-18T16:07:22.474Z,7.60
2023-04-18T16:09:49.732Z,7.47
2023-04-18T16:12:16.987Z,7.00
2023-04-18T16:14:47.182Z,7.53
2023-04-18T16:17:14.511Z,7.95
2023-04-18T16:19:41.666Z,7.50
2023-04-18T16:22:10.530Z,7.97
2023-04-18T16:24:38.826Z,8.15
2023-04-18T16:27:06.820Z,9.23
2023-04-18T16:29:34.200Z,8.27
2023-04-18T16:32:01.476Z,7.95
2023-04-18T16:34:28.847Z,9.00
2023-04-18T16:36:56.082Z,8.10
2023-04-18T16:39:24.780Z,8.68
2023-04-18T16:41:52.240Z,8.98
2023-04-18T16:44:19.435Z,8.50
2023-04-18T16:46:46.851Z,8.52
2023-04-18T16:49:14.083Z,9.35
2023-04-18T16:51:42.053Z,8.63
2023-04-18T16:54:09.572Z,9.10
2023-04-18T16:56:38.908Z,8.65
2023-04-18T16:59:06.443Z,8.95
2023-04-18T17:01:33.658Z,9.57
2023-04-18T17:04:01.952Z,11.13
2023-04-18T17:06:31.243Z,10.30
2023-04-18T17:08:58.943Z,9.77
2023-04-18T17:11:26.236Z,9.95
2023-04-18T17:13:54.857Z,8.82
2023-04-18T17:16:22.290Z,9.32
2023-04-18T17:18:49.506Z,9.73
2023-04-18T17:21:16.730Z,9.20
2023-04-18T17:23:44.160Z,9.40
2023-04-18T17:26:11.516Z,8.85
2023-04-18T17:28:38.936Z,8.18
2023-04-18T17:31:07.481Z,10.30
2023-04-18T17:33:34.783Z,9.50
2023-04-18T17:36:02.916Z,10.13
2023-04-18T17:38:31.485Z,9.30
2023-04-18T17:40:59.412Z,9.68
2023-04-18T17:43:26.945Z,9.00
2023-04-18T17:45:55.556Z,9.88
2023-04-18T17:48:24.257Z,8.57
2023-04-18T17:50:51.516Z,8.65
2023-04-18T17:53:18.677Z,8.82
2023-04-18T17:55:45.942Z,8.48
2023-04-18T17:58:13.184Z,9.57
2023-04-18T18:00:40.478Z,7.93
2023-04-18T18:03:07.843Z,8.98
2023-04-18T18:05:36.814Z,8.73
2023-04-18T18:08:04.511Z,9.50
2023-04-18T18:10:32.203Z,9.05
2023-04-18T18:12:59.475Z,9.60
2023-04-18T18:15:26.725Z,9.77
2023-04-18T18:17:54.080Z,9.20
2023-04-18T18:20:21.622Z,9.45
2023-04-18T18:22:50.506Z,8.68
2023-04-18T18:25:17.755Z,8.07
2023-04-18T18:27:45.079Z,9.00
2023-04-18T18:30:12.965Z,9.30
2023-04-18T18:32:40.242Z,9.50
2023-04-18T18:35:08.294Z,10.38
2023-04-18T18:37:35.516Z,10.25
2023-04-18T18:40:05.062Z,8.55
2023-04-18T18:42:32.283Z,8.73
2023-04-18T18:44:59.525Z,9.35
2023-04-18T18:47:26.843Z,8.15
2023-04-18T18:49:54.089Z,8.48
2023-04-18T18:52:21.216Z,8.98
2023-04-18T18:54:48.575Z,8.85
2023-04-18T18:57:17.186Z,7.35
2023-04-18T18:59:44.491Z,8.30
2023-04-18T19:02:11.881Z,8.63
2023-04-18T19:04:39.314Z,7.93
2023-04-18T19:07:06.563Z,8.73
2023-04-18T19:09:33.816Z,9.00
2023-04-18T19:12:01.060Z,8.38
2023-04-18T19:14:29.742Z,8.38
2023-04-18T19:16:57.031Z,8.10
2023-04-18T19:19:24.617Z,8.07
2023-04-18T19:21:51.952Z,8.05
2023-04-18T19:24:19.272Z,8.30
2023-04-18T19:26:46.516Z,8.50
2023-04-18T19:29:13.961Z,7.15
2023-04-18T19:31:43.007Z,8.10
2023-04-18T19:34:10.370Z,7.75
2023-04-18T19:36:37.778Z,6.90
2023-04-18T19:39:05.057Z,7.57
2023-04-18T19:41:32.519Z,7.90
2023-04-18T19:43:59.787Z,6.65
2023-04-18T19:46:27.090Z,7.80
2023-04-18T19:48:55.898Z,7.43
2023-04-18T19:51:23.257Z,6.55
2023-04-18T19:53:50.499Z,7.32
2023-04-18T19:56:17.703Z,7.35
2023-04-18T19:58:45.212Z,7.05
2023-04-18T20:01:13.008Z,6.95
2023-04-18T20:03:40.609Z,7.15
2023-04-18T20:06:09.438Z,7.03
2023-04-18T20:08:40.519Z,6.97
2023-04-18T20:11:08.893Z,8.23
2023-04-18T20:13:36.445Z,7.78
2023-04-18T20:16:03.945Z,6.93
2023-04-18T20:18:31.213Z,6.90
2023-04-18T20:20:58.895Z,7.50
2023-04-18T20:23:27.627Z,8.35
2023-04-18T20:25:54.908Z,6.32
2023-04-18T20:28:22.118Z,6.43
2023-04-18T20:30:49.431Z,6.72
2023-04-18T20:33:16.756Z,6.05
2023-04-18T20:35:44.415Z,6.15
2023-04-18T20:38:11.650Z,6.10
2023-04-18T20:40:40.620Z,6.00
2023-04-18T20:43:07.986Z,7.07
2023-04-18T20:45:35.486Z,6.00
2023-04-18T20:48:02.800Z,6.13
2023-04-18T20:50:30.125Z,5.68
2023-04-18T20:52:58.637Z,6.38
2023-04-18T20:55:25.915Z,6.57
2023-04-18T20:57:54.520Z,5.97
2023-04-18T21:00:21.961Z,6.15
2023-04-18T21:02:49.337Z,5.97
2023-04-18T21:05:16.680Z,6.40
2023-04-18T21:07:45.682Z,5.78
2023-04-18T21:10:13.149Z,6.32
2023-04-18T21:12:40.382Z,4.85
2023-04-18T21:15:10.069Z,5.25
2023-04-18T21:17:37.293Z,5.75
2023-04-18T21:20:05.359Z,4.82
2023-04-18T21:22:32.637Z,5.70
2023-04-18T21:24:59.821Z,4.53
2023-04-18T21:27:27.138Z,3.63
2023-04-18T21:29:54.307Z,3.60
2023-04-18T21:32:22.973Z,3.78
2023-04-18T21:34:50.241Z,3.80
2023-04-18T21:37:17.520Z,3.53
2023-04-18T21:39:44.789Z,3.47
2023-04-18T21:42:12.008Z,3.40
2023-04-18T21:44:39.184Z,3.42
2023-04-18T21:47:06.390Z,3.60
2023-04-18T21:49:34.922Z,3.55
2023-04-18T21:52:02.101Z,3.60
2023-04-18T21:54:29.354Z,3.13
2023-04-18T21:56:56.497Z,3.35
2023-04-18T21:59:24.412Z,3.20
2023-04-18T22:01:51.577Z,3.38
2023-04-18T22:04:19.158Z,3.38
2023-04-18T22:06:48.181Z,3.10
2023-04-18T22:09:15.332Z,3.15
2023-04-18T22:11:42.532Z,3.33
2023-04-18T22:14:09.715Z,3.50
2023-04-18T22:16:36.925Z,3.10
2023-04-18T22:19:04.102Z,3.63
2023-04-18T22:21:31.348Z,3.25
2023-04-18T22:24:00.009Z,3.65
2023-04-18T22:26:27.178Z,4.18
2023-04-18T22:28:54.442Z,3.58
2023-04-18T22:31:21.681Z,3.55
2023-04-18T22:33:48.955Z,4.13
2023-04-18T22:36:16.190Z,3.90
2023-04-18T22:38:43.482Z,3.65
2023-04-18T22:41:12.017Z,3.88
2023-04-18T22:43:39.194Z,3.78
2023-04-18T22:46:06.442Z,4.10
2023-04-18T22:48:33.744Z,4.55
2023-04-18T22:51:02.104Z,4.80
2023-04-18T22:53:29.254Z,4.95
2023-04-18T22:55:56.839Z,5.78
2023-04-18T22:58:25.386Z,4.68
2023-04-18T23:00:52.627Z,5.50
2023-04-18T23:03:20.125Z,5.53
2023-04-18T23:05:47.331Z,5.85
2023-04-18T23:08:14.475Z,4.95
2023-04-18T23:10:41.730Z,5.90
2023-04-18T23:13:08.926Z,5.63
2023-04-18T23:15:37.485Z,6.47
2023-04-18T23:18:04.731Z,6.18
2023-04-18T23:20:32.014Z,7.07
2023-04-18T23:22:59.245Z,7.03
2023-04-18T23:25:26.525Z,6.80
2023-04-18T23:27:53.730Z,7.63
2023-04-18T23:30:20.920Z,7.53
2023-04-18T23:32:49.523Z,6.80
2023-04-18T23:35:17.037Z,6.60
2023-04-18T23:37:44.235Z,6.68
2023-04-18T23:40:11.490Z,6.90
2023-04-18T23:42:38.709Z,7.22
2023-04-18T23:45:06.706Z,7.45
2023-04-18T23:47:33.979Z,7.90
2023-04-18T23:50:02.725Z,7.40
2023-04-18T23:52:29.934Z,7.72
2023-04-18T23:54:59.285Z,6.93
2023-04-18T23:57:26.667Z,7.85
2023-04-18T23:59:53.884Z,7.22
